»·PEaware :: N9229P KOSH-KOSH

N9229P :: KOSH-KOSH

FLIGHT INFORMATION

Flight Status: Arrived
Operator: Privately registered:
United States
More flights under this callsign
Pilot: James W. (24810)
Aircraft: PIPER PA-28R-201 ARROW
(P28R)
More flights by this aircraft type
Origin: KOSH Wittman Regl
United States
Destination: KOSH Wittman Regl
United States
More flights between these airports :: More routes between these airports
Route: null
File this flight plan on PilotEdge
Remarks:
Altitude:
(Current/Filed)
null
Speed:
(Current/Filed)
0kts
Departed: 24-Jul-20 02:22 PM
Arrived: 24-Jul-20 02:58 PM
Distance/Time
Traveled:
3nm/0:36
Distance/Time
To Go:
Arrived

Flight Plot

Page will automatically refresh every two minutes.

Flight plan parsing failed; only flown route is shown


Map Options




Map Legend


Flown Route
Filed Route
Departure Airport
Arrival Airport
Navaid (VOR, NDB)
Fix

Horizontal Profiles

Position Reports

Time Latitude Longitude Heading Altitude Ground
Speed
24-Jul-20 14:21 43.903046 -88.469507 148 1316ft 137kts
24-Jul-20 14:21 43.875296 -88.454869 175 1723ft 127kts
24-Jul-20 14:23 43.834770 -88.464877 194 2301ft 128kts
24-Jul-20 14:23 43.817475 -88.494476 255 2500ft 135kts
24-Jul-20 14:25 43.807062 -88.554385 256 2500ft 137kts
24-Jul-20 14:26 43.797647 -88.605582 253 2500ft 137kts
24-Jul-20 14:27 43.789198 -88.656955 263 2499ft 137kts
24-Jul-20 14:28 43.786190 -88.708499 266 2548ft 123kts
24-Jul-20 14:28 43.784087 -88.744563 270 2991ft 115kts
24-Jul-20 14:30 43.796756 -88.796889 289 2999ft 123kts
24-Jul-20 14:30 43.805544 -88.830100 289 2799ft 108kts
24-Jul-20 14:32 43.818330 -88.873019 294 2498ft 95kts
24-Jul-20 14:32 43.827671 -88.900407 295 2499ft 94kts
24-Jul-20 14:33 43.838809 -88.935566 290 2232ft 102kts
24-Jul-20 14:35 43.839267 -88.980626 256 1879ft 100kts
24-Jul-20 14:35 43.831280 -89.010230 248 1799ft 98kts
24-Jul-20 14:37 43.817139 -89.047049 239 1799ft 91kts
24-Jul-20 14:37 43.803459 -89.068798 212 1800ft 91kts
24-Jul-20 14:39 43.776594 -89.063908 125 1799ft 91kts
24-Jul-20 14:39 43.773945 -89.035675 77 1800ft 91kts
24-Jul-20 14:40 43.781968 -89.002568 65 1800ft 91kts
24-Jul-20 14:41 43.793233 -88.970315 61 1800ft 95kts
24-Jul-20 14:42 43.805994 -88.938073 60 1800ft 96kts
24-Jul-20 14:43 43.819313 -88.905908 59 1799ft 96kts
24-Jul-20 14:44 43.833191 -88.872453 59 1797ft 95kts
24-Jul-20 14:45 43.846088 -88.841613 57 1799ft 91kts
24-Jul-20 14:46 43.860638 -88.812671 52 1800ft 91kts
24-Jul-20 14:47 43.876217 -88.784837 51 1799ft 91kts
24-Jul-20 14:48 43.892545 -88.757872 45 1800ft 91kts
24-Jul-20 14:49 43.910581 -88.733107 41 1799ft 91kts
24-Jul-20 14:50 43.930289 -88.709744 38 1799ft 94kts
24-Jul-20 14:51 43.950558 -88.686866 39 1796ft 93kts
24-Jul-20 14:52 43.966983 -88.658983 57 1799ft 93kts
24-Jul-20 14:53 43.980535 -88.628151 59 1799ft 93kts
24-Jul-20 14:54 43.993774 -88.596960 58 1799ft 93kts
24-Jul-20 14:55 43.998427 -88.562758 79 1506ft 87kts
24-Jul-20 14:56 43.991382 -88.556127 267 861ft 60kts
24-Jul-20 14:57 43.992409 -88.569787 273 828ft 29kts
24-Jul-20 14:58 43.990924 -88.575301 60 828ft 10kts
24-Jul-20 14:59 43.990966 -88.569800 90 828ft 19kts
24-Jul-20 15:00 43.990909 -88.562471 92 813ft 22kts
24-Jul-20 15:01 43.988651 -88.555755 199 813ft 13kts
24-Jul-20 15:02 43.984790 -88.557979 180 813ft 20kts
24-Jul-20 15:03 43.978721 -88.558050 180 813ft 22kts
24-Jul-20 15:04 43.973178 -88.558119 180 813ft 14kts
24-Jul-20 15:05 43.968914 -88.558183 180 813ft 10kts
24-Jul-20 15:06 43.968280 -88.558186 179 813ft 4kts
24-Jul-20 15:07 43.967585 -88.558154 154 813ft 0kts
24-Jul-20 15:08 43.967515 -88.556972 66 813ft 11kts
24-Jul-20 15:09 43.975142 -88.556569 2 930ft 82kts
24-Jul-20 15:10 43.975018 -88.531354 150 1300ft 104kts
24-Jul-20 15:11 43.949286 -88.512214 151 1299ft 105kts

Navigation Log

Ident Type
Flight plan parsing failed, navigation log unavailable